Time;durP1;ratioP1;P1;durP2;ratioP2;P2;SDS_P1;SDS_P2;PMS_P1;PMS_P2;Temp;Humidity;BMP_temperature;BMP_pressure;BME280_temperature;BME280_humidity;BME280_pressure;Samples;Min_cycle;Max_cycle;Signal;HPM_P1;HPM_P2
2022/09/21 00:03:28;;;;;;;0.00;0.00;;;;;;;6.24;100.00;102529.00;10372958;28;20104;-77
2022/09/21 00:08:28;;;;;;;0.00;0.00;;;;;;;6.27;100.00;102532.31;10355747;28;20080;-77
2022/09/21 00:13:29;;;;;;;0.00;0.00;;;;;;;6.30;100.00;102534.78;10372858;28;20041;-77
2022/09/21 00:18:29;;;;;;;0.00;0.00;;;;;;;6.16;100.00;102531.22;10372804;28;20017;-77
2022/09/21 00:23:30;;;;;;;0.00;0.00;;;;;;;5.83;100.00;102534.84;10371567;28;20022;-77
2022/09/21 00:28:30;;;;;;;0.00;0.00;;;;;;;5.45;100.00;102541.31;10371440;28;20369;-77
2022/09/21 00:33:31;;;;;;;0.00;0.00;;;;;;;5.35;100.00;102541.88;10370821;28;20014;-77
2022/09/21 00:38:32;;;;;;;0.00;0.00;;;;;;;5.34;100.00;102542.84;10371916;28;20036;-77
2022/09/21 00:43:33;;;;;;;0.00;0.00;;;;;;;5.32;100.00;102537.63;10352988;28;20009;-77
2022/09/21 00:48:33;;;;;;;0.00;0.00;;;;;;;5.35;100.00;102541.88;10353008;28;20511;-77
2022/09/21 00:53:36;;;;;;;0.00;0.00;;;;;;;5.35;100.00;102540.13;10369504;28;20014;-77
2022/09/21 00:58:45;;;;;;;0.00;0.00;;;;;;;5.34;100.00;102541.03;10370205;28;20369;-77
2022/09/21 01:03:47;;;;;;;0.00;0.00;;;;;;;5.20;100.00;102540.94;10369064;28;20026;-77
2022/09/21 01:08:51;;;;;;;0.00;0.00;;;;;;;5.07;100.00;102545.19;10369186;28;20504;-77
2022/09/21 01:13:58;;;;;;;0.00;0.00;;;;;;;4.88;100.00;102540.84;10368768;28;20022;-77
2022/09/21 01:19:39;;;;;;;0.00;0.00;;;;;;;4.74;100.00;102545.97;10368660;28;20037;-76
2022/09/21 01:24:51;;;;;;;0.00;0.00;;;;;;;4.57;100.00;102546.00;10366503;28;20108;-77
2022/09/21 01:29:59;;;;;;;0.00;0.00;;;;;;;4.49;100.00;102544.63;10369279;28;20022;-77
2022/09/21 01:35:12;;;;;;;0.00;0.00;;;;;;;4.47;100.00;102550.91;10368215;28;20076;-76
2022/09/21 01:40:19;;;;;;;0.00;0.00;;;;;;;4.45;100.00;102558.91;10368158;28;20036;-76
2022/09/21 01:45:26;;;;;;;0.00;0.00;;;;;;;4.46;100.00;102560.59;10368517;28;20377;-76
2022/09/21 01:50:32;;;;;;;0.00;0.00;;;;;;;4.42;100.00;102555.53;10366290;28;20101;-76
2022/09/21 01:56:00;;;;;;;0.00;0.00;;;;;;;4.38;100.00;102559.28;10367559;28;20045;-76
2022/09/21 02:01:03;;;;;;;0.00;0.00;;;;;;;4.34;100.00;102557.72;10346882;28;20076;-76
2022/09/21 02:06:05;;;;;;;0.00;0.00;;;;;;;4.24;100.00;102558.16;10367284;28;20461;-76
2022/09/21 02:11:05;;;;;;;0.05;0.05;;;;;;;4.20;100.00;102569.81;10367650;28;20017;-76
2022/09/21 02:16:06;;;;;;;0.00;0.00;;;;;;;4.24;100.00;102567.88;10367603;28;20014;-76
2022/09/21 02:21:33;;;;;;;0.00;0.00;;;;;;;4.13;100.00;102564.91;10365520;28;20057;-76
2022/09/21 02:26:55;;;;;;;0.00;0.00;;;;;;;3.96;100.00;102566.59;10330241;28;20100;-76
2022/09/21 02:32:08;;;;;;;0.00;0.00;;;;;;;3.96;100.00;102571.00;10366123;28;20469;-76
2022/09/21 02:37:23;;;;;;;0.00;0.00;;;;;;;3.90;100.00;102572.16;10366696;28;20045;-76
2022/09/21 02:42:32;;;;;;;0.00;0.00;;;;;;;3.80;100.00;102571.72;10366352;28;20500;-76
2022/09/21 02:47:38;;;;;;;0.00;0.00;;;;;;;3.79;100.00;102575.28;10366620;28;20041;-76
2022/09/21 02:52:41;;;;;;;0.00;0.00;;;;;;;3.89;100.00;102577.47;10366593;28;20034;-76
2022/09/21 02:57:43;;;;;;;0.00;0.00;;;;;;;3.92;100.00;102575.56;10348818;28;20064;-76
2022/09/21 03:02:44;;;;;;;0.10;0.10;;;;;;;3.99;100.00;102571.72;10367927;28;20477;-76
2022/09/21 03:07:44;;;;;;;0.00;0.00;;;;;;;4.06;100.00;102578.38;10372027;28;20026;-76
2022/09/21 03:12:45;;;;;;;0.00;0.00;;;;;;;4.06;100.00;102586.28;10373289;28;20033;-76
2022/09/21 03:17:46;;;;;;;0.03;0.03;;;;;;;4.11;100.00;102590.50;10374211;28;20300;-76
2022/09/21 03:22:46;;;;;;;0.00;0.00;;;;;;;4.08;100.00;102591.50;10372209;28;20114;-76
2022/09/21 03:27:46;;;;;;;0.03;0.03;;;;;;;4.04;100.00;102589.94;10373638;28;20090;-76
2022/09/21 03:32:50;;;;;;;0.00;0.00;;;;;;;4.03;100.00;102588.22;10372872;28;20026;-76
2022/09/21 03:37:51;;;;;;;0.00;0.00;;;;;;;4.02;100.00;102587.38;10373700;28;20440;-76
2022/09/21 03:42:53;;;;;;;0.03;0.03;;;;;;;4.01;100.00;102584.81;10372045;28;20076;-76
2022/09/21 03:47:58;;;;;;;0.00;0.00;;;;;;;4.00;100.00;102594.50;10373192;28;20041;-76
2022/09/21 03:52:59;;;;;;;0.00;0.00;;;;;;;4.01;100.00;102588.28;10371696;28;20464;-76
2022/09/21 03:57:59;;;;;;;0.00;0.00;;;;;;;4.00;100.00;102594.50;10354554;28;20036;-76
2022/09/21 04:03:00;;;;;;;0.00;0.00;;;;;;;3.94;100.00;102586.88;10351925;28;20364;-76
2022/09/21 04:08:01;;;;;;;0.00;0.00;;;;;;;3.93;100.00;102584.34;10367922;28;20030;-76
2022/09/21 04:13:02;;;;;;;0.00;0.00;;;;;;;3.96;100.00;102592.09;10367927;28;20018;-76
2022/09/21 04:18:02;;;;;;;0.00;0.00;;;;;;;4.01;100.00;102598.00;10369860;28;20022;-76
2022/09/21 04:23:02;;;;;;;0.00;0.00;;;;;;;4.02;100.00;102595.28;10368008;28;20018;-76
2022/09/21 04:28:03;;;;;;;0.00;0.00;;;;;;;4.07;100.00;102598.56;10370759;28;20652;-76
2022/09/21 04:33:03;;;;;;;0.00;0.00;;;;;;;4.12;100.00;102597.47;10366390;28;20025;-76
2022/09/21 04:38:03;;;;;;;0.00;0.00;;;;;;;4.12;100.00;102589.56;10368243;28;20014;-76
2022/09/21 04:43:04;;;;;;;0.00;0.00;;;;;;;4.09;100.00;102594.06;10350820;28;20024;-76
2022/09/21 04:48:04;;;;;;;0.00;0.00;;;;;;;4.12;100.00;102600.13;10369127;28;20037;-76
2022/09/21 04:53:04;;;;;;;0.00;0.00;;;;;;;4.14;100.00;102601.75;10368639;28;20477;-76
2022/09/21 04:58:05;;;;;;;0.00;0.00;;;;;;;4.14;100.00;102599.13;10368884;28;20022;-76
2022/09/21 05:03:05;;;;;;;0.00;0.00;;;;;;;4.14;100.00;102599.13;10365155;28;20269;-76
2022/09/21 05:08:05;;;;;;;0.00;0.00;;;;;;;4.18;100.00;102605.09;10367600;28;20277;-76
2022/09/21 05:13:06;;;;;;;0.00;0.00;;;;;;;4.21;100.00;102612.84;10369784;28;20018;-77
2022/09/21 05:18:06;;;;;;;0.00;0.00;;;;;;;4.26;100.00;102616.13;10367375;28;20362;-76
2022/09/21 05:23:06;;;;;;;0.00;0.00;;;;;;;4.30;100.00;102629.13;10368648;28;20067;-76
2022/09/21 05:28:07;;;;;;;0.00;0.00;;;;;;;4.35;100.00;102631.50;10344193;28;20036;-76
2022/09/21 05:33:12;;;;;;;0.00;0.00;;;;;;;4.42;100.00;102635.56;10358754;28;20014;-76
2022/09/21 05:38:17;;;;;;;0.00;0.00;;;;;;;4.59;100.00;102633.88;10367858;28;20431;-76
2022/09/21 05:43:17;;;;;;;;;;;;;;;4.75;100.00;102629.56;10368103;28;20067;-76
2022/09/21 05:48:22;;;;;;;0.00;0.00;;;;;;;4.93;100.00;102636.53;10366477;28;20468;-75
2022/09/21 05:53:28;;;;;;;;;;;;;;;5.18;100.00;102644.06;10368252;28;20245;-76
2022/09/21 05:58:58;;;;;;;0.00;0.00;;;;;;;5.52;100.00;102647.56;10368347;28;19917;-76
2022/09/21 06:04:01;;;;;;;0.00;0.00;;;;;;;5.75;100.00;102643.66;10367762;28;20037;-76
2022/09/21 06:09:01;;;;;;;0.00;0.00;;;;;;;6.02;100.00;102638.72;10349979;28;20026;-76
2022/09/21 06:14:01;;;;;;;0.00;0.00;;;;;;;6.34;100.00;102647.47;10367462;28;20024;-76
2022/09/21 06:19:02;;;;;;;0.00;0.00;;;;;;;6.57;100.00;102654.13;10352573;28;20026;-76
2022/09/21 06:24:02;;;;;;;0.00;0.00;;;;;;;6.82;100.00;102660.63;10366102;28;20425;-75
2022/09/21 06:29:03;;;;;;;0.00;0.00;;;;;;;7.06;100.00;102657.47;10349890;28;20030;-76
2022/09/21 06:34:03;;;;;;;0.00;0.00;;;;;;;7.34;100.00;102668.13;10366157;28;20113;-76
2022/09/21 06:39:03;;;;;;;0.00;0.00;;;;;;;7.60;100.00;102666.53;10369467;28;20025;-76
2022/09/21 06:44:04;;;;;;;0.00;0.00;;;;;;;7.85;100.00;102657.03;10374842;28;20162;-76
2022/09/21 06:49:04;;;;;;;0.00;0.00;;;;;;;8.11;100.00;102653.56;10374335;28;20025;-76
2022/09/21 06:54:04;;;;;;;0.00;0.00;;;;;;;8.56;100.00;102656.03;10374564;28;20018;-76
2022/09/21 06:59:05;;;;;;;0.00;0.00;;;;;;;8.99;100.00;102669.97;10374491;28;20030;-76
2022/09/21 07:04:08;;;;;;;0.00;0.00;;;;;;;9.25;100.00;102668.19;10374272;28;20072;-76
2022/09/21 07:09:08;;;;;;;0.08;0.08;;;;;;;9.74;100.00;102670.06;10356435;28;20847;-76
2022/09/21 07:14:08;;;;;;;0.00;0.00;;;;;;;10.00;100.00;102677.16;10373369;28;20197;-76
2022/09/21 07:19:08;;;;;;;0.10;0.10;;;;;;;10.13;100.00;102676.16;10373021;28;20034;-76
2022/09/21 07:24:09;;;;;;;0.10;0.10;;;;;;;10.30;100.00;102680.28;10355346;28;20026;-76
2022/09/21 07:29:09;;;;;;;0.07;0.07;;;;;;;10.46;100.00;102679.16;10372439;28;20021;-76
2022/09/21 07:34:10;;;;;;;0.10;0.10;;;;;;;10.55;100.00;102687.31;10373006;28;20055;-76
2022/09/21 07:39:10;;;;;;;0.10;0.10;;;;;;;10.68;100.00;102681.94;10372118;28;20303;-76
2022/09/21 07:44:11;;;;;;;0.10;0.10;;;;;;;10.84;100.00;102681.63;10372005;28;20017;-76
2022/09/21 07:49:12;;;;;;;0.10;0.10;;;;;;;11.01;100.00;102680.34;10371300;28;20071;-76
2022/09/21 07:54:14;;;;;;;0.10;0.10;;;;;;;11.52;100.00;102690.66;10372128;28;20029;-76
2022/09/21 07:59:14;;;;;;;0.10;0.10;;;;;;;11.80;100.00;102683.97;10372392;28;20040;-76
2022/09/21 08:04:15;;;;;;;0.10;0.10;;;;;;;12.64;100.00;102689.69;10371723;28;20025;-76
2022/09/21 08:09:15;;;;;;;0.10;0.10;;;;;;;13.01;100.00;102686.59;10372298;28;20042;-76
2022/09/21 08:14:18;;;;;;;0.10;0.10;;;;;;;13.92;100.00;102690.34;10370400;28;20109;-77
2022/09/21 08:19:19;;;;;;;0.10;0.10;;;;;;;14.31;100.00;102694.00;10373735;28;20014;-76
2022/09/21 08:24:19;;;;;;;0.10;0.10;;;;;;;14.66;100.00;102703.38;10374781;28;20048;-77
2022/09/21 08:29:20;;;;;;;0.10;0.10;;;;;;;15.37;100.00;102698.50;10376268;28;20022;-77
2022/09/21 08:34:22;;;;;;;0.10;0.10;;;;;;;16.60;100.00;102702.72;10374618;28;20045;-77
2022/09/21 08:39:22;;;;;;;0.10;0.10;;;;;;;17.47;100.00;102703.78;10375443;28;20061;-77
2022/09/21 08:44:28;;;;;;;0.00;0.00;;;;;;;17.58;100.00;102708.06;10377528;28;20509;-78
2022/09/21 08:49:30;;;;;;;0.10;0.10;;;;;;;17.79;100.00;102707.72;10378489;28;20054;-77
2022/09/21 08:54:46;;;;;;;0.10;0.10;;;;;;;18.14;100.00;102708.53;10376578;28;20064;-78
2022/09/21 08:59:48;;;;;;;0.10;0.10;;;;;;;17.41;100.00;102704.44;10373505;28;20033;-77
2022/09/21 09:05:05;;;;;;;0.10;0.10;;;;;;;17.55;100.00;102713.78;10376099;28;20038;-77
2022/09/21 09:10:15;;;;;;;0.10;0.10;;;;;;;17.26;100.00;102709.56;10373535;28;20028;-78
2022/09/21 09:15:37;;;;;;;0.00;0.00;;;;;;;16.79;100.00;102717.91;10375447;28;20044;-77
2022/09/21 09:20:44;;;;;;;0.00;0.00;;;;;;;17.01;100.00;102711.19;10372882;28;20025;-77
2022/09/21 09:25:48;;;;;;;0.10;0.10;;;;;;;17.51;100.00;102710.56;10375048;28;20105;-76
2022/09/21 09:30:56;;;;;;;0.10;0.10;;;;;;;18.17;100.00;102716.28;10374638;28;20381;-77
2022/09/21 09:35:56;;;;;;;0.10;0.10;;;;;;;18.03;100.00;102712.34;10373406;28;20044;-77
2022/09/21 09:41:19;;;;;;;0.10;0.10;;;;;;;18.04;100.00;102720.28;10374532;28;20024;-77
2022/09/21 09:46:28;;;;;;;0.10;0.10;;;;;;;18.17;100.00;102717.13;10390524;28;20034;-77
2022/09/21 09:51:28;;;;;;;0.00;0.00;;;;;;;17.80;100.00;102712.06;10374288;28;20024;-76
2022/09/21 09:56:31;;;;;;;0.10;0.10;;;;;;;17.67;100.00;102714.34;10374009;28;20097;-77
2022/09/21 10:01:40;;;;;;;0.00;0.00;;;;;;;17.57;100.00;102718.00;10373055;28;20022;-77
2022/09/21 10:06:40;;;;;;;0.10;0.10;;;;;;;17.63;100.00;102721.91;10372584;28;20030;-77
2022/09/21 10:11:41;;;;;;;0.10;0.10;;;;;;;17.67;100.00;102714.34;10373236;28;20027;-76
2022/09/21 10:16:42;;;;;;;0.10;0.10;;;;;;;17.48;100.00;102710.00;10373283;28;20022;-76
2022/09/21 10:21:44;;;;;;;0.00;0.00;;;;;;;17.34;100.00;102715.00;10371443;28;20049;-77
2022/09/21 10:26:55;;;;;;;0.10;0.10;;;;;;;17.37;100.00;102717.38;10370026;28;20050;-76
2022/09/21 10:32:15;;;;;;;0.10;0.10;;;;;;;17.61;100.00;102708.59;10366651;28;20033;-76
2022/09/21 10:37:49;;;;;;;0.10;0.10;;;;;;;17.71;100.00;102704.94;10368558;28;20493;-76
2022/09/21 10:42:53;;;;;;;0.08;0.08;;;;;;;17.87;100.00;102713.13;10368418;28;20393;-76
2022/09/21 10:47:55;;;;;;;0.10;0.10;;;;;;;17.62;100.00;102701.34;10369686;28;20085;-76
2022/09/21 10:53:09;;;;;;;0.00;0.00;;;;;;;17.46;100.00;102687.81;10354955;28;20057;-76
2022/09/21 10:58:12;;;;;;;0.00;0.00;;;;;;;17.24;100.00;102687.31;10367513;28;20064;-76
2022/09/21 11:03:40;;;;;;;0.00;0.00;;;;;;;17.31;100.00;102685.69;10368310;28;20026;-76
2022/09/21 11:08:49;;;;;;;0.10;0.10;;;;;;;17.60;100.00;102684.53;10367194;28;20026;-76
2022/09/21 11:13:59;;;;;;;0.10;0.10;;;;;;;17.55;100.00;102681.44;10365862;28;20026;-76
2022/09/21 11:19:19;;;;;;;0.10;0.10;;;;;;;17.58;100.00;102683.81;10364482;28;20022;-76
2022/09/21 11:24:52;;;;;;;0.00;0.00;;;;;;;17.52;100.00;102682.59;10369079;28;20029;-76
2022/09/21 11:29:55;;;;;;;;;;;;;;;17.72;100.00;102683.22;10357241;28;20013;-76
2022/09/21 11:35:16;;;;;;;0.00;0.00;;;;;;;17.76;100.00;102683.75;10374174;28;20364;-76
2022/09/21 11:40:43;;;;;;;0.10;0.10;;;;;;;17.74;100.00;102681.19;10373204;28;20045;-76
2022/09/21 11:46:05;;;;;;;0.10;0.10;;;;;;;17.71;87.25;102675.28;10373250;28;20030;-76
2022/09/21 11:51:37;;;;;;;0.00;0.00;;;;;;;17.71;91.05;102675.28;10352312;28;20119;-76
2022/09/21 11:57:01;;;;;;;0.07;0.07;;;;;;;17.76;81.46;102676.50;10387504;28;20033;-76
2022/09/21 12:02:22;;;;;;;0.10;0.10;;;;;;;17.64;82.74;102662.47;10327065;28;20393;-76
2022/09/21 12:07:32;;;;;;;0.00;0.00;;;;;;;17.57;79.82;102664.13;10372146;28;20469;-76
2022/09/21 12:12:40;;;;;;;0.00;0.00;;;;;;;17.42;76.81;102660.31;10353764;28;20014;-76
2022/09/21 12:17:50;;;;;;;0.10;0.10;;;;;;;17.36;77.83;102664.50;10371160;28;20110;-76
2022/09/21 12:22:58;;;;;;;0.00;0.00;;;;;;;17.36;79.34;102658.25;10353717;28;20030;-75
2022/09/21 12:28:05;;;;;;;0.05;0.05;;;;;;;17.43;77.66;102648.56;10353756;28;20370;-76
2022/09/21 12:33:18;;;;;;;0.00;0.00;;;;;;;17.50;79.21;102648.75;10370741;28;20492;-75
2022/09/21 12:38:49;;;;;;;0.03;0.03;;;;;;;17.49;77.42;102647.06;10351108;28;20489;-76
2022/09/21 12:44:04;;;;;;;0.00;0.00;;;;;;;17.68;80.09;102641.41;10364223;28;20100;-76
2022/09/21 12:49:13;;;;;;;0.00;0.00;;;;;;;17.80;73.04;102634.78;10370069;28;20048;-76
2022/09/21 12:54:23;;;;;;;0.00;0.00;;;;;;;17.82;76.97;102637.28;10370520;28;20390;-76
2022/09/21 12:59:36;;;;;;;0.00;0.00;;;;;;;17.79;71.46;102629.53;10370069;28;20423;-76
2022/09/21 13:04:54;;;;;;;0.00;0.00;;;;;;;17.67;73.58;102626.25;10369858;28;20071;-76
2022/09/21 13:09:56;;;;;;;0.00;0.00;;;;;;;17.70;78.55;102619.72;10368546;28;20068;-76
2022/09/21 13:15:04;;;;;;;0.10;0.10;;;;;;;17.56;75.51;102615.78;10367285;28;20477;-76
2022/09/21 13:20:16;;;;;;;0.00;0.00;;;;;;;17.48;81.54;102621.94;10352546;28;20030;-76
2022/09/21 13:25:30;;;;;;;0.00;0.00;;;;;;;17.32;86.08;102613.81;10369186;28;20417;-76
2022/09/21 13:30:37;;;;;;;0.00;0.00;;;;;;;17.29;82.41;102616.81;10369159;28;20101;-76
2022/09/21 13:36:00;;;;;;;0.00;0.00;;;;;;;17.23;82.56;102612.09;10368685;28;20032;-76
2022/09/21 13:41:22;;;;;;;;;;;;;;;17.15;84.57;102610.16;10350271;28;20025;-76
2022/09/21 13:46:34;;;;;;;0.00;0.00;;;;;;;16.97;83.86;102612.94;10367675;28;19913;-76
2022/09/21 13:51:48;;;;;;;0.10;0.10;;;;;;;16.82;81.84;102609.97;10367598;28;20022;-76
2022/09/21 13:56:59;;;;;;;0.10;0.10;;;;;;;16.81;83.16;102610.09;10350417;28;20092;-76
2022/09/21 14:02:00;;;;;;;0.00;0.00;;;;;;;16.76;80.71;102599.84;10367622;28;20092;-76
2022/09/21 14:07:04;;;;;;;0.00;0.00;;;;;;;16.75;80.63;102598.97;10350210;28;20033;-76
2022/09/21 14:12:16;;;;;;;0.00;0.00;;;;;;;16.81;82.19;102599.34;10366954;28;20014;-76
2022/09/21 14:17:34;;;;;;;0.10;0.10;;;;;;;16.76;84.51;102586.38;10366302;28;20060;-76
2022/09/21 14:22:37;;;;;;;0.10;0.10;;;;;;;16.73;79.92;102578.59;10366331;28;20025;-76
2022/09/21 14:27:41;;;;;;;0.00;0.00;;;;;;;16.73;81.09;102581.28;10348718;28;20478;-76
2022/09/21 14:32:47;;;;;;;0.00;0.00;;;;;;;16.69;83.65;102575.34;10366932;28;20026;-76
2022/09/21 14:37:51;;;;;;;0.10;0.10;;;;;;;16.59;83.33;102577.28;10366736;28;20053;-76
2022/09/21 14:42:54;;;;;;;0.10;0.10;;;;;;;16.51;84.00;102574.53;10365906;28;20034;-76
2022/09/21 14:48:25;;;;;;;0.00;0.00;;;;;;;16.39;83.71;102570.41;10364839;28;20029;-76
2022/09/21 14:54:14;;;;;;;0.10;0.10;;;;;;;16.28;84.89;102568.78;10346123;28;20057;-76
2022/09/21 14:59:37;;;;;;;0.10;0.10;;;;;;;16.19;84.66;102562.50;10295100;28;20160;-76
2022/09/21 15:04:40;;;;;;;;;;;;;;;16.07;86.27;102556.50;10374732;28;20040;-76
2022/09/21 15:15:43;;;;;;;;;;;;;;;15.85;84.58;102554.25;10374794;28;20026;-76
2022/09/21 15:20:43;;;;;;;0.10;0.10;;;;;;;15.79;88.63;102555.69;10374181;28;20198;-76
2022/09/21 15:25:57;;;;;;;0.10;0.10;;;;;;;15.73;85.04;102550.94;10355995;28;20469;-76
2022/09/21 15:30:57;;;;;;;0.10;0.10;;;;;;;15.66;84.66;102549.84;10371582;28;20021;-76
2022/09/21 15:36:01;;;;;;;0.10;0.10;;;;;;;15.60;86.61;102547.75;10373157;28;20400;-75
2022/09/21 15:41:02;;;;;;;0.10;0.10;;;;;;;15.54;86.53;102543.81;10355685;28;20018;-76
2022/09/21 15:46:05;;;;;;;0.10;0.10;;;;;;;15.48;85.58;102541.75;10373256;28;20032;-76
2022/09/21 15:51:27;;;;;;;0.00;0.00;;;;;;;15.38;89.95;102538.25;10372628;28;20022;-76
2022/09/21 15:56:28;;;;;;;0.10;0.10;;;;;;;15.29;88.05;102539.97;10372999;28;20231;-76
2022/09/21 16:01:29;;;;;;;0.10;0.10;;;;;;;15.23;92.26;102534.38;10372284;28;20030;-76
2022/09/21 16:06:37;;;;;;;0.10;0.10;;;;;;;15.19;91.23;102541.88;10355173;28;20038;-76
2022/09/21 16:11:38;;;;;;;0.00;0.00;;;;;;;15.13;88.10;102539.78;10354072;28;20021;-76
2022/09/21 16:17:12;;;;;;;0.10;0.10;;;;;;;15.06;90.98;102533.31;10353317;28;20018;-76
2022/09/21 16:22:28;;;;;;;0.10;0.10;;;;;;;15.05;92.18;102539.69;10353519;28;20022;-76
2022/09/21 16:27:31;;;;;;;0.10;0.10;;;;;;;15.00;99.35;102544.63;10371905;28;20029;-76
2022/09/21 16:32:33;;;;;;;0.10;0.10;;;;;;;14.86;100.00;102544.09;10370876;28;20025;-76
2022/09/21 16:37:35;;;;;;;0.10;0.10;;;;;;;14.70;100.00;102543.88;10371070;28;20030;-76
2022/09/21 16:42:35;;;;;;;0.10;0.10;;;;;;;14.50;100.00;102541.19;10350191;28;20014;-76
2022/09/21 16:47:36;;;;;;;0.10;0.10;;;;;;;14.38;100.00;102546.84;10350476;28;20021;-76
2022/09/21 16:52:37;;;;;;;0.10;0.10;;;;;;;14.23;100.00;102547.28;10367093;28;20030;-76
2022/09/21 16:57:37;;;;;;;0.10;0.10;;;;;;;14.04;100.00;102545.41;10366882;28;20037;-76
2022/09/21 17:02:41;;;;;;;0.10;0.10;;;;;;;13.89;100.00;102549.50;10367356;28;20034;-76
2022/09/21 17:07:48;;;;;;;0.10;0.10;;;;;;;13.71;100.00;102543.97;10367347;28;20469;-76
2022/09/21 17:12:50;;;;;;;0.10;0.10;;;;;;;13.51;100.00;102537.72;10349322;28;20022;-76
2022/09/21 17:17:51;;;;;;;0.10;0.10;;;;;;;13.30;100.00;102548.50;10348893;28;20028;-76
2022/09/21 17:22:51;;;;;;;0.10;0.10;;;;;;;13.12;100.00;102539.41;10364984;28;20385;-76
2022/09/21 17:27:51;;;;;;;0.10;0.10;;;;;;;12.93;100.00;102539.28;10368060;28;20412;-76
2022/09/21 17:32:53;;;;;;;0.10;0.10;;;;;;;12.67;100.00;102542.38;10365876;28;20112;-77
2022/09/21 17:37:53;;;;;;;0.10;0.10;;;;;;;12.42;100.00;102547.13;10349159;28;20025;-76
2022/09/21 17:43:20;;;;;;;0.10;0.10;;;;;;;12.21;100.00;102541.75;10365470;28;20492;-75
2022/09/21 17:48:21;;;;;;;0.10;0.10;;;;;;;12.03;100.00;102545.97;10365114;28;20036;-77
2022/09/21 17:53:35;;;;;;;0.10;0.10;;;;;;;11.86;100.00;102547.34;10347588;28;20101;-76
2022/09/21 17:58:55;;;;;;;0.10;0.10;;;;;;;11.66;100.00;102554.25;10365314;28;20079;-76
2022/09/21 18:03:56;;;;;;;0.10;0.10;;;;;;;11.50;100.00;102560.00;10365682;28;20041;-76
2022/09/21 18:08:57;;;;;;;0.08;0.08;;;;;;;11.36;100.00;102560.25;10368298;28;20036;-75
2022/09/21 18:14:19;;;;;;;0.10;0.10;;;;;;;11.22;100.00;102555.16;10367313;28;20027;-76
2022/09/21 18:19:45;;;;;;;0.10;0.10;;;;;;;11.04;100.00;102557.47;10347712;28;20397;-76
2022/09/21 18:24:46;;;;;;;0.00;0.00;;;;;;;10.90;100.00;102563.00;10367437;28;20040;-76
2022/09/21 18:29:46;;;;;;;0.10;0.10;;;;;;;10.79;100.00;102563.84;10367664;28;20544;-76
2022/09/21 18:35:09;;;;;;;0.10;0.10;;;;;;;10.67;100.00;102560.28;10366814;28;20389;-76
2022/09/21 18:40:47;;;;;;;0.10;0.10;;;;;;;10.52;100.00;102559.66;10367420;28;20057;-76
2022/09/21 18:46:11;;;;;;;0.05;0.05;;;;;;;10.32;100.00;102566.47;10366974;28;20496;-76
2022/09/21 18:51:29;;;;;;;0.10;0.10;;;;;;;10.09;100.00;102567.31;10354530;28;20030;-76
2022/09/21 18:56:36;;;;;;;0.00;0.00;;;;;;;9.92;100.00;102565.91;10367577;28;20049;-76
2022/09/21 19:01:36;;;;;;;0.10;0.10;;;;;;;9.82;100.00;102556.88;10348794;28;20026;-76
2022/09/21 19:06:53;;;;;;;0.10;0.10;;;;;;;9.78;100.00;102563.41;10349209;28;20392;-76
2022/09/21 19:12:04;;;;;;;0.00;0.00;;;;;;;9.67;100.00;102562.34;10348925;28;20392;-76
2022/09/21 19:17:09;;;;;;;0.10;0.10;;;;;;;9.59;100.00;102559.41;10366503;28;20025;-76
2022/09/21 19:22:15;;;;;;;0.03;0.03;;;;;;;9.49;100.00;102561.88;10366522;28;20511;-76
2022/09/21 19:27:41;;;;;;;0.10;0.10;;;;;;;9.40;100.00;102565.19;10348966;28;20501;-76
2022/09/21 19:32:48;;;;;;;0.10;0.10;;;;;;;9.34;100.00;102573.63;10365776;28;20381;-76
2022/09/21 19:37:51;;;;;;;0.00;0.00;;;;;;;9.32;100.00;102574.69;10348549;28;20075;-76
2022/09/21 19:43:31;;;;;;;0.00;0.00;;;;;;;9.37;100.00;102576.06;10348151;28;20022;-77
2022/09/21 19:48:43;;;;;;;0.10;0.10;;;;;;;9.30;100.00;102574.78;10342867;28;20120;-76
2022/09/21 20:04:38;;;;;;;0.00;0.00;;;;;;;9.07;100.00;102577.25;10372264;28;20026;-76
2022/09/21 20:09:43;;;;;;;0.10;0.10;;;;;;;8.96;100.00;102587.78;10355020;28;20026;-76
2022/09/21 20:14:52;;;;;;;0.00;0.00;;;;;;;8.86;100.00;102586.69;10372233;28;20049;-76
2022/09/21 20:20:07;;;;;;;0.00;0.00;;;;;;;8.87;100.00;102587.53;10371589;28;20084;-76
2022/09/21 20:25:07;;;;;;;0.10;0.10;;;;;;;8.81;100.00;102583.47;10353679;28;20020;-76
2022/09/21 20:30:11;;;;;;;0.00;0.00;;;;;;;8.68;100.00;102580.81;10371564;28;20024;-77
2022/09/21 20:35:17;;;;;;;0.00;0.00;;;;;;;8.51;100.00;102576.63;10355159;28;20048;-77
2022/09/21 20:40:19;;;;;;;0.10;0.10;;;;;;;8.42;100.00;102581.72;10368197;28;20042;-77
2022/09/21 20:45:20;;;;;;;0.03;0.03;;;;;;;8.30;100.00;102573.59;10365354;28;20489;-77
2022/09/21 20:50:23;;;;;;;0.00;0.00;;;;;;;8.26;100.00;102579.19;10373293;28;20024;-77
2022/09/21 20:55:24;;;;;;;0.10;0.10;;;;;;;8.20;100.00;102584.91;10355413;28;20068;-77
2022/09/21 21:00:25;;;;;;;0.00;0.00;;;;;;;8.15;100.00;102580.75;10373106;28;20022;-77
2022/09/21 21:05:27;;;;;;;0.00;0.00;;;;;;;8.02;100.00;102584.31;10355789;28;20037;-77
2022/09/21 21:10:28;;;;;;;0.00;0.00;;;;;;;7.91;100.00;102585.00;10415870;22;20049;-75
2022/09/21 21:15:29;;;;;;;0.00;0.00;;;;;;;7.85;100.00;102586.25;10392150;28;20420;-74
2022/09/21 21:20:29;;;;;;;0.00;0.00;;;;;;;7.81;100.00;102586.53;10375636;28;20057;-75
2022/09/21 21:25:30;;;;;;;0.00;0.00;;;;;;;7.79;100.00;102585.78;10369997;28;20050;-75
2022/09/21 21:30:30;;;;;;;0.00;0.00;;;;;;;7.76;100.00;102596.59;10370463;28;20022;-75
2022/09/21 21:35:31;;;;;;;0.00;0.00;;;;;;;7.69;100.00;102596.97;10370225;28;20105;-75
2022/09/21 21:40:31;;;;;;;0.00;0.00;;;;;;;7.67;100.00;102590.06;10368166;28;20304;-75
2022/09/21 21:45:31;;;;;;;0.00;0.00;;;;;;;7.59;100.00;102592.34;10372111;28;20033;-75
2022/09/21 21:50:32;;;;;;;0.00;0.00;;;;;;;7.58;100.00;102594.16;10382623;28;20280;-75
2022/09/21 21:55:32;;;;;;;0.00;0.00;;;;;;;7.64;100.00;102599.06;10368500;28;20025;-75
2022/09/21 22:00:32;;;;;;;0.00;0.00;;;;;;;7.73;100.00;102589.66;10365190;28;20025;-75
2022/09/21 22:05:33;;;;;;;0.00;0.00;;;;;;;7.78;100.00;102589.41;10367976;28;20104;-75
2022/09/21 22:10:33;;;;;;;0.00;0.00;;;;;;;7.71;100.00;102589.78;10366223;28;20026;-75
2022/09/21 22:15:33;;;;;;;0.00;0.00;;;;;;;7.58;100.00;102599.44;10385977;28;20392;-75
2022/09/21 22:20:34;;;;;;;0.00;0.00;;;;;;;7.46;100.00;102587.81;10375851;28;20029;-75
2022/09/21 22:25:34;;;;;;;0.00;0.00;;;;;;;7.29;100.00;102592.47;10386837;28;20025;-75
2022/09/21 22:30:35;;;;;;;0.00;0.00;;;;;;;7.21;100.00;102591.16;10408314;28;20021;-75
2022/09/21 22:35:35;;;;;;;0.00;0.00;;;;;;;7.25;100.00;102587.34;10407851;28;20017;-74
2022/09/21 22:40:35;;;;;;;0.00;0.00;;;;;;;7.34;100.00;102590.38;10374715;28;20241;-75
2022/09/21 22:45:35;;;;;;;0.00;0.00;;;;;;;7.33;100.00;102586.00;10367352;28;20025;-75
2022/09/21 22:50:36;;;;;;;0.00;0.00;;;;;;;7.19;100.00;102586.88;10367659;28;20263;-74
2022/09/21 22:55:36;;;;;;;0.00;0.00;;;;;;;7.09;100.00;102583.09;10367040;28;20380;-74
2022/09/21 23:00:36;;;;;;;0.00;0.00;;;;;;;7.05;100.00;102585.06;10378193;28;20046;-75
2022/09/21 23:05:37;;;;;;;0.10;0.10;;;;;;;6.99;100.00;102577.50;10367194;28;20076;-75
2022/09/21 23:10:37;;;;;;;0.00;0.00;;;;;;;6.91;100.00;102579.75;10366346;28;20257;-75
2022/09/21 23:15:37;;;;;;;0.00;0.00;;;;;;;6.78;100.00;102566.41;10366730;28;20018;-75
2022/09/21 23:20:38;;;;;;;0.00;0.00;;;;;;;6.64;100.00;102561.94;10370682;28;20618;-75
2022/09/21 23:25:38;;;;;;;0.00;0.00;;;;;;;6.57;100.00;102560.56;10374946;28;20025;-75
2022/09/21 23:30:39;;;;;;;0.00;0.00;;;;;;;6.50;100.00;102554.78;10372852;28;20053;-75
2022/09/21 23:35:40;;;;;;;0.00;0.00;;;;;;;6.43;100.00;102552.56;10373661;28;20026;-75
2022/09/21 23:40:41;;;;;;;0.00;0.00;;;;;;;6.37;100.00;102552.94;10373106;28;20033;-75
2022/09/21 23:45:41;;;;;;;0.00;0.00;;;;;;;6.36;100.00;102554.75;10373521;28;20018;-75